Private Wetterstation Nrnberg - Katzwang
Wetterdaten: Juni 2012
Datum Temp. A. Feuchte A. Luftdruck Regen Wind Richtung Taupunkt Windchill Windben
01.06.2012 16,1 C 70 % 1014 hPa 2,6 l/m 4,1 km/h W-NW 10,6 C 15,7 C 5,1 km/h
02.06.2012 16,2 C 71 % 1012 hPa 0,0 l/m 3,4 km/h W-NW 10,9 C 15,6 C 4,4 km/h
03.06.2012 17,1 C 80 % 1006 hPa 2,6 l/m 1,7 km/h N-NO 13,5 C 17,1 C 2,7 km/h
04.06.2012 15,8 C 73 % 1009 hPa 0,0 l/m 6,2 km/h W-NW 10,9 C 15,1 C 7,2 km/h
05.06.2012 11,2 C 66 % 1015 hPa 0,5 l/m 3,4 km/h W-NW 5,0 C 11,0 C 4,4 km/h
06.06.2012 14,8 C 76 % 1008 hPa 5,2 l/m 1,0 km/h NO 10,4 C 14,8 C 2,0 km/h
07.06.2012 19,5 C 75 % 1005 hPa 4,1 l/m 2,2 km/h N-NO 14,5 C 19,4 C 3,2 km/h
08.06.2012 17,3 C 79 % 1009 hPa 0,5 l/m 3,6 km/h W-NW 13,6 C 17,3 C 4,6 km/h
09.06.2012 18,1 C 59 % 1012 hPa 0,0 l/m 3,4 km/h W-NW 9,4 C 18,1 C 4,4 km/h
10.06.2012 16,6 C 58 % 1008 hPa 0,0 l/m 1,4 km/h W-NW 8,2 C 16,6 C 2,3 km/h
11.06.2012 15,7 C 75 % 1003 hPa 1,0 l/m 1,4 km/h W-NW 11,1 C 15,7 C 2,3 km/h
12.06.2012 15,7 C 73 % 1002 hPa 4,7 l/m 8,5 km/h N-NO 10,6 C 14,6 C 9,5 km/h
13.06.2012 14,7 C 79 % 1011 hPa 2,1 l/m 3,3 km/h W-NW 10,9 C 14,4 C 4,3 km/h
14.06.2012 15,5 C 76 % 1016 hPa 1,6 l/m 3,8 km/h W-NW 11,1 C 15,2 C 4,8 km/h
15.06.2012 20,8 C 61 % 1015 hPa 0,0 l/m 5,6 km/h O 12,5 C 20,3 C 7,1 km/h
16.06.2012 23,7 C 60 % 1015 hPa 0,0 l/m 9,8 km/h W-NW 14,8 C 22,9 C 10,8 km/h
17.06.2012 20,3 C 62 % 1020 hPa 0,0 l/m 6,0 km/h N-NO 12,6 C 19,6 C 7,0 km/h
18.06.2012 25,2 C 56 % 1014 hPa 0,0 l/m 4,4 km/h W-NW 15,0 C 25,2 C 5,4 km/h
19.06.2012 25,5 C 61 % 1014 hPa 0,5 l/m 3,9 km/h NO 17,0 C 25,3 C 4,9 km/h
20.06.2012 22,4 C 73 % 1011 hPa 0,5 l/m 0,7 km/h W-NW 17,2 C 22,4 C 1,7 km/h
21.06.2012 22,6 C 67 % 1009 hPa 0,0 l/m 0,0 km/h W-NW 15,9 C 22,6 C 1,0 km/h
22.06.2012 19,7 C 56 % 1018 hPa 7,3 l/m 3,6 km/h W-NW 10,3 C 19,3 C 6,8 km/h
23.06.2012 19,6 C 56 % 1021 hPa 0,0 l/m 3,9 km/h W-NW 10,0 C 19,2 C 6,3 km/h
24.06.2012 20,8 C 55 % 1013 hPa 0,0 l/m 6,3 km/h W-NW 10,6 C 20,3 C 7,3 km/h
25.06.2012 17,1 C 62 % 1015 hPa 2,6 l/m 10,5 km/h W-NW 9,3 C 15,4 C 18,6 km/h
26.06.2012 18,4 C 56 % 1019 hPa 0,0 l/m 3,1 km/h W-NW 9,0 C 17,9 C 4,1 km/h
27.06.2012 20,9 C 62 % 1016 hPa 0,0 l/m 1,4 km/h W-NW 13,1 C 20,9 C 2,4 km/h
28.06.2012 25,7 C 55 % 1011 hPa 1,6 l/m 4,9 km/h N-NO 15,5 C 25,6 C 6,7 km/h
29.06.2012 28,1 C 52 % 1009 hPa 0,5 l/m 7,7 km/h N-NO 16,3 C 28,1 C 9,2 km/h
30.06.2012 28,2 C 57 % 1009 hPa 4,1 l/m 7,9 km/h N-NO 18,5 C 27,8 C 8,9 km/h
Min-Datum 06.06.12 29.06.12 12.06.12 17 Tage 01.06.12 - 06.06.12 05.06.12 01.06.12
Min-Zeit 02:15 14:40 14:00 - 01:40 - 02:15 04:45 01:40
Minimum 6,6 C 30 % 1000 hPa - 0,0 km/h - 3,4 C 2,0 C 1,0 km/h
Max-Datum 29.06.12 07.06.12 23.06.12 22.06.12 26.06.12 - 30.06.12 29.06.12 30.06.12
Max-Zeit 14:50 02:45 07:20 01:00 11:40 - 15:10 14:50 22:40
Maximum 35,8 C 85 % 1023 hPa 7,3 l/m 40,4 km/h
W-NW
- 20,2 C 35,8 C 58,5 km/h
N-NO
Durchschnitt 19,4 C 65 % 1012 hPa #42,0 l/m 4,2 km/h W-NW 12,3 C 19,1 C 5,6 km/h

Durchschnitt Minimum Temp.13,4 C
Durchschnitt Maximum Temp.25,1 C